sensor_id;sensor_type;location;lat;lon;timestamp;temperature;humidity
68511;SHT31;55512;50.102;19.958;2023-02-26T00:01:20;4.06;69.36
68511;SHT31;55512;50.102;19.958;2023-02-26T00:03:50;4.05;69.31
68511;SHT31;55512;50.102;19.958;2023-02-26T00:06:17;4.05;69.24
68511;SHT31;55512;50.102;19.958;2023-02-26T00:08:44;4.02;69.10
68511;SHT31;55512;50.102;19.958;2023-02-26T00:11:09;3.99;69.03
68511;SHT31;55512;50.102;19.958;2023-02-26T00:13:37;4.01;68.98
68511;SHT31;55512;50.102;19.958;2023-02-26T00:18:59;4.03;68.72
68511;SHT31;55512;50.102;19.958;2023-02-26T00:21:28;4.03;68.43
68511;SHT31;55512;50.102;19.958;2023-02-26T00:23:55;4.03;68.30
68511;SHT31;55512;50.102;19.958;2023-02-26T00:26:22;4.04;68.21
68511;SHT31;55512;50.102;19.958;2023-02-26T00:28:50;4.04;68.04
68511;SHT31;55512;50.102;19.958;2023-02-26T00:31:16;4.04;67.90
68511;SHT31;55512;50.102;19.958;2023-02-26T00:33:45;4.03;67.85
68511;SHT31;55512;50.102;19.958;2023-02-26T00:36:24;4.02;67.73
68511;SHT31;55512;50.102;19.958;2023-02-26T00:42:12;4.01;67.60
68511;SHT31;55512;50.102;19.958;2023-02-26T00:44:38;4.00;67.58
68511;SHT31;55512;50.102;19.958;2023-02-26T00:49:53;4.00;67.50
68511;SHT31;55512;50.102;19.958;2023-02-26T00:55:19;3.97;67.42
68511;SHT31;55512;50.102;19.958;2023-02-26T00:57:45;3.98;67.44
68511;SHT31;55512;50.102;19.958;2023-02-26T01:00:11;3.98;67.48
68511;SHT31;55512;50.102;19.958;2023-02-26T01:02:38;3.97;67.40
68511;SHT31;55512;50.102;19.958;2023-02-26T01:05:05;3.97;67.34
68511;SHT31;55512;50.102;19.958;2023-02-26T01:07:36;3.95;67.39
68511;SHT31;55512;50.102;19.958;2023-02-26T01:10:09;3.92;67.35
68511;SHT31;55512;50.102;19.958;2023-02-26T01:12:36;3.89;67.31
68511;SHT31;55512;50.102;19.958;2023-02-26T01:15:02;3.88;67.32
68511;SHT31;55512;50.102;19.958;2023-02-26T01:17:43;3.89;67.35
68511;SHT31;55512;50.102;19.958;2023-02-26T01:20:19;3.89;67.47
68511;SHT31;55512;50.102;19.958;2023-02-26T01:25:47;3.82;68.31
68511;SHT31;55512;50.102;19.958;2023-02-26T01:28:19;3.76;68.68
68511;SHT31;55512;50.102;19.958;2023-02-26T01:30:45;3.74;68.73
68511;SHT31;55512;50.102;19.958;2023-02-26T01:36:01;3.68;69.03
68511;SHT31;55512;50.102;19.958;2023-02-26T01:38:52;3.66;69.11
68511;SHT31;55512;50.102;19.958;2023-02-26T01:49:49;3.58;69.00
68511;SHT31;55512;50.102;19.958;2023-02-26T01:55:18;3.57;68.97
68511;SHT31;55512;50.102;19.958;2023-02-26T01:57:48;3.54;69.00
68511;SHT31;55512;50.102;19.958;2023-02-26T02:00:17;3.52;69.00
68511;SHT31;55512;50.102;19.958;2023-02-26T02:02:43;3.51;69.01
68511;SHT31;55512;50.102;19.958;2023-02-26T02:05:14;3.51;68.95
68511;SHT31;55512;50.102;19.958;2023-02-26T02:08:11;3.51;68.64
68511;SHT31;55512;50.102;19.958;2023-02-26T02:10:39;3.51;68.29
68511;SHT31;55512;50.102;19.958;2023-02-26T02:19:01;3.50;67.92
68511;SHT31;55512;50.102;19.958;2023-02-26T02:25:01;3.46;67.38
68511;SHT31;55512;50.102;19.958;2023-02-26T02:33:14;3.40;67.19
68511;SHT31;55512;50.102;19.958;2023-02-26T02:35:58;3.38;67.21
68511;SHT31;55512;50.102;19.958;2023-02-26T02:38:35;3.39;67.27
68511;SHT31;55512;50.102;19.958;2023-02-26T02:41:14;3.39;67.27
68511;SHT31;55512;50.102;19.958;2023-02-26T02:43:49;3.39;67.34
68511;SHT31;55512;50.102;19.958;2023-02-26T02:46:27;3.39;67.34
68511;SHT31;55512;50.102;19.958;2023-02-26T02:51:44;3.39;67.19
68511;SHT31;55512;50.102;19.958;2023-02-26T02:54:23;3.38;67.12
68511;SHT31;55512;50.102;19.958;2023-02-26T02:57:43;3.40;67.11
68511;SHT31;55512;50.102;19.958;2023-02-26T03:00:09;3.40;67.05
68511;SHT31;55512;50.102;19.958;2023-02-26T03:05:49;3.38;66.94
68511;SHT31;55512;50.102;19.958;2023-02-26T03:08:16;3.38;67.00
68511;SHT31;55512;50.102;19.958;2023-02-26T03:10:50;3.37;66.93
68511;SHT31;55512;50.102;19.958;2023-02-26T03:13:16;3.37;67.00
68511;SHT31;55512;50.102;19.958;2023-02-26T03:24:46;3.28;66.60
68511;SHT31;55512;50.102;19.958;2023-02-26T03:29:58;3.25;66.78
68511;SHT31;55512;50.102;19.958;2023-02-26T03:32:32;3.25;66.78
68511;SHT31;55512;50.102;19.958;2023-02-26T03:35:37;3.23;66.86
68511;SHT31;55512;50.102;19.958;2023-02-26T03:38:22;3.19;66.84
68511;SHT31;55512;50.102;19.958;2023-02-26T03:41:14;3.15;66.91
68511;SHT31;55512;50.102;19.958;2023-02-26T03:46:23;3.11;66.69
68511;SHT31;55512;50.102;19.958;2023-02-26T03:48:56;3.08;66.57
68511;SHT31;55512;50.102;19.958;2023-02-26T03:51:28;3.05;66.53
68511;SHT31;55512;50.102;19.958;2023-02-26T03:53:57;3.05;66.49
68511;SHT31;55512;50.102;19.958;2023-02-26T03:56:37;3.05;66.47
68511;SHT31;55512;50.102;19.958;2023-02-26T03:59:08;3.03;66.39
68511;SHT31;55512;50.102;19.958;2023-02-26T04:01:44;2.99;66.10
68511;SHT31;55512;50.102;19.958;2023-02-26T04:04:55;2.92;65.97
68511;SHT31;55512;50.102;19.958;2023-02-26T04:07:27;2.91;65.97
68511;SHT31;55512;50.102;19.958;2023-02-26T04:09:53;2.88;65.89
68511;SHT31;55512;50.102;19.958;2023-02-26T04:12:20;2.83;65.79
68511;SHT31;55512;50.102;19.958;2023-02-26T04:14:48;2.81;65.78
68511;SHT31;55512;50.102;19.958;2023-02-26T04:17:14;2.79;65.49
68511;SHT31;55512;50.102;19.958;2023-02-26T04:19:40;2.73;65.19
68511;SHT31;55512;50.102;19.958;2023-02-26T04:22:05;2.68;65.14
68511;SHT31;55512;50.102;19.958;2023-02-26T04:24:31;2.68;65.16
68511;SHT31;55512;50.102;19.958;2023-02-26T04:26:57;2.69;65.19
68511;SHT31;55512;50.102;19.958;2023-02-26T04:29:22;2.67;65.20
68511;SHT31;55512;50.102;19.958;2023-02-26T04:31:47;2.68;65.14
68511;SHT31;55512;50.102;19.958;2023-02-26T04:34:13;2.67;64.93
68511;SHT31;55512;50.102;19.958;2023-02-26T04:36:39;2.67;64.81
68511;SHT31;55512;50.102;19.958;2023-02-26T04:39:04;2.67;64.83
68511;SHT31;55512;50.102;19.958;2023-02-26T04:41:30;2.67;64.77
68511;SHT31;55512;50.102;19.958;2023-02-26T04:43:55;2.69;64.90
68511;SHT31;55512;50.102;19.958;2023-02-26T04:46:20;2.70;64.77
68511;SHT31;55512;50.102;19.958;2023-02-26T04:48:46;2.70;64.64
68511;SHT31;55512;50.102;19.958;2023-02-26T04:51:12;2.70;64.43
68511;SHT31;55512;50.102;19.958;2023-02-26T04:53:37;2.67;63.90
68511;SHT31;55512;50.102;19.958;2023-02-26T04:56:02;2.65;63.65
68511;SHT31;55512;50.102;19.958;2023-02-26T04:58:28;2.64;63.64
68511;SHT31;55512;50.102;19.958;2023-02-26T05:00:54;2.65;63.62
68511;SHT31;55512;50.102;19.958;2023-02-26T05:03:21;2.66;63.55
68511;SHT31;55512;50.102;19.958;2023-02-26T05:05:47;2.67;63.51
68511;SHT31;55512;50.102;19.958;2023-02-26T05:08:13;2.67;63.44
68511;SHT31;55512;50.102;19.958;2023-02-26T05:10:38;2.67;63.40
68511;SHT31;55512;50.102;19.958;2023-02-26T05:13:04;2.69;63.37
68511;SHT31;55512;50.102;19.958;2023-02-26T05:15:29;2.70;63.23
68511;SHT31;55512;50.102;19.958;2023-02-26T05:17:56;2.71;63.37
68511;SHT31;55512;50.102;19.958;2023-02-26T05:20:22;2.71;63.30
68511;SHT31;55512;50.102;19.958;2023-02-26T05:22:47;2.70;63.11
68511;SHT31;55512;50.102;19.958;2023-02-26T05:25:13;2.70;63.15
68511;SHT31;55512;50.102;19.958;2023-02-26T05:27:39;2.70;63.32
68511;SHT31;55512;50.102;19.958;2023-02-26T05:30:07;2.72;63.43
68511;SHT31;55512;50.102;19.958;2023-02-26T05:32:34;2.70;63.44
68511;SHT31;55512;50.102;19.958;2023-02-26T05:35:00;2.72;63.49
68511;SHT31;55512;50.102;19.958;2023-02-26T05:37:26;2.71;63.50
68511;SHT31;55512;50.102;19.958;2023-02-26T05:39:51;2.71;63.58
68511;SHT31;55512;50.102;19.958;2023-02-26T05:42:17;2.70;63.61
68511;SHT31;55512;50.102;19.958;2023-02-26T05:44:42;2.67;63.73
68511;SHT31;55512;50.102;19.958;2023-02-26T05:50:16;2.65;64.09
68511;SHT31;55512;50.102;19.958;2023-02-26T05:52:41;2.64;64.08
68511;SHT31;55512;50.102;19.958;2023-02-26T05:55:07;2.63;64.00
68511;SHT31;55512;50.102;19.958;2023-02-26T05:57:33;2.62;64.08
68511;SHT31;55512;50.102;19.958;2023-02-26T05:59:59;2.61;64.42
68511;SHT31;55512;50.102;19.958;2023-02-26T06:02:24;2.56;64.85
68511;SHT31;55512;50.102;19.958;2023-02-26T06:04:50;2.51;65.27
68511;SHT31;55512;50.102;19.958;2023-02-26T06:07:15;2.47;65.79
68511;SHT31;55512;50.102;19.958;2023-02-26T06:09:41;2.45;65.79
68511;SHT31;55512;50.102;19.958;2023-02-26T06:12:07;2.45;65.80
68511;SHT31;55512;50.102;19.958;2023-02-26T06:14:33;2.45;65.80
68511;SHT31;55512;50.102;19.958;2023-02-26T06:16:59;2.42;65.94
68511;SHT31;55512;50.102;19.958;2023-02-26T06:19:27;2.38;66.17
68511;SHT31;55512;50.102;19.958;2023-02-26T06:21:52;2.36;66.43
68511;SHT31;55512;50.102;19.958;2023-02-26T06:24:18;2.33;66.83
68511;SHT31;55512;50.102;19.958;2023-02-26T06:26:43;2.31;67.06
68511;SHT31;55512;50.102;19.958;2023-02-26T06:29:09;2.30;67.13
68511;SHT31;55512;50.102;19.958;2023-02-26T06:31:34;2.33;67.00
68511;SHT31;55512;50.102;19.958;2023-02-26T06:34:00;2.35;66.76
68511;SHT31;55512;50.102;19.958;2023-02-26T06:36:26;2.39;66.53
68511;SHT31;55512;50.102;19.958;2023-02-26T06:38:51;2.41;66.33
68511;SHT31;55512;50.102;19.958;2023-02-26T06:41:17;2.43;66.24
68511;SHT31;55512;50.102;19.958;2023-02-26T06:43:42;2.45;65.97
68511;SHT31;55512;50.102;19.958;2023-02-26T06:46:08;2.49;65.73
68511;SHT31;55512;50.102;19.958;2023-02-26T06:48:33;2.51;65.29
68511;SHT31;55512;50.102;19.958;2023-02-26T06:50:59;2.56;65.06
68511;SHT31;55512;50.102;19.958;2023-02-26T06:53:24;2.59;64.78
68511;SHT31;55512;50.102;19.958;2023-02-26T06:55:51;2.62;64.50
68511;SHT31;55512;50.102;19.958;2023-02-26T06:58:18;2.66;64.51
68511;SHT31;55512;50.102;19.958;2023-02-26T07:00:44;2.68;64.23
68511;SHT31;55512;50.102;19.958;2023-02-26T07:03:14;2.71;64.21
68511;SHT31;55512;50.102;19.958;2023-02-26T07:05:41;2.75;64.30
68511;SHT31;55512;50.102;19.958;2023-02-26T07:08:07;2.77;64.20
68511;SHT31;55512;50.102;19.958;2023-02-26T07:10:33;2.79;64.20
68511;SHT31;55512;50.102;19.958;2023-02-26T07:13:00;2.79;64.10
68511;SHT31;55512;50.102;19.958;2023-02-26T07:15:26;2.82;64.02
68511;SHT31;55512;50.102;19.958;2023-02-26T07:17:52;2.86;63.84
68511;SHT31;55512;50.102;19.958;2023-02-26T07:20:18;2.92;63.90
68511;SHT31;55512;50.102;19.958;2023-02-26T07:22:44;3.00;63.97
68511;SHT31;55512;50.102;19.958;2023-02-26T07:25:10;3.07;63.67
68511;SHT31;55512;50.102;19.958;2023-02-26T07:27:37;3.07;62.44
68511;SHT31;55512;50.102;19.958;2023-02-26T07:30:03;3.04;61.59
68511;SHT31;55512;50.102;19.958;2023-02-26T07:32:31;3.03;61.94
68511;SHT31;55512;50.102;19.958;2023-02-26T07:34:57;3.08;62.34
68511;SHT31;55512;50.102;19.958;2023-02-26T07:37:24;3.11;62.21
68511;SHT31;55512;50.102;19.958;2023-02-26T07:39:50;3.13;62.21
68511;SHT31;55512;50.102;19.958;2023-02-26T07:42:16;3.15;62.31
68511;SHT31;55512;50.102;19.958;2023-02-26T07:44:42;3.13;62.49
68511;SHT31;55512;50.102;19.958;2023-02-26T07:47:08;3.14;62.74
68511;SHT31;55512;50.102;19.958;2023-02-26T07:49:35;3.16;62.66
68511;SHT31;55512;50.102;19.958;2023-02-26T07:52:01;3.15;62.91
68511;SHT31;55512;50.102;19.958;2023-02-26T07:54:27;3.11;62.75
68511;SHT31;55512;50.102;19.958;2023-02-26T07:56:53;3.02;62.13
68511;SHT31;55512;50.102;19.958;2023-02-26T07:59:18;2.99;62.64
68511;SHT31;55512;50.102;19.958;2023-02-26T08:01:44;3.00;62.72
68511;SHT31;55512;50.102;19.958;2023-02-26T08:04:10;3.00;62.43
68511;SHT31;55512;50.102;19.958;2023-02-26T08:06:35;3.01;62.50
68511;SHT31;55512;50.102;19.958;2023-02-26T08:09:01;2.99;62.37
68511;SHT31;55512;50.102;19.958;2023-02-26T08:11:28;2.98;62.96
68511;SHT31;55512;50.102;19.958;2023-02-26T08:13:54;3.00;63.31
68511;SHT31;55512;50.102;19.958;2023-02-26T08:16:19;2.99;63.25
68511;SHT31;55512;50.102;19.958;2023-02-26T08:18:45;3.01;63.18
68511;SHT31;55512;50.102;19.958;2023-02-26T08:21:11;3.01;63.17
68511;SHT31;55512;50.102;19.958;2023-02-26T08:23:37;3.03;63.09
68511;SHT31;55512;50.102;19.958;2023-02-26T08:26:05;3.05;63.15
68511;SHT31;55512;50.102;19.958;2023-02-26T08:28:34;3.04;63.11
68511;SHT31;55512;50.102;19.958;2023-02-26T08:31:00;3.02;62.90
68511;SHT31;55512;50.102;19.958;2023-02-26T08:33:27;3.05;62.83
68511;SHT31;55512;50.102;19.958;2023-02-26T08:35:53;3.06;62.62
68511;SHT31;55512;50.102;19.958;2023-02-26T08:38:20;3.11;62.46
68511;SHT31;55512;50.102;19.958;2023-02-26T08:40:49;3.13;61.98
68511;SHT31;55512;50.102;19.958;2023-02-26T08:43:17;3.07;60.94
68511;SHT31;55512;50.102;19.958;2023-02-26T08:45:43;3.05;60.89
68511;SHT31;55512;50.102;19.958;2023-02-26T08:48:10;3.00;60.40
68511;SHT31;55512;50.102;19.958;2023-02-26T08:50:36;3.00;60.71
68511;SHT31;55512;50.102;19.958;2023-02-26T08:53:01;3.02;60.59
68511;SHT31;55512;50.102;19.958;2023-02-26T08:55:27;3.07;60.70
68511;SHT31;55512;50.102;19.958;2023-02-26T08:57:53;3.12;60.70
68511;SHT31;55512;50.102;19.958;2023-02-26T09:00:18;3.13;60.11
68511;SHT31;55512;50.102;19.958;2023-02-26T09:02:44;3.17;60.43
68511;SHT31;55512;50.102;19.958;2023-02-26T09:05:10;3.21;60.52
68511;SHT31;55512;50.102;19.958;2023-02-26T09:07:36;3.25;60.38
68511;SHT31;55512;50.102;19.958;2023-02-26T09:10:04;3.31;59.74
68511;SHT31;55512;50.102;19.958;2023-02-26T09:12:30;3.33;59.06
68511;SHT31;55512;50.102;19.958;2023-02-26T09:14:56;3.33;58.89
68511;SHT31;55512;50.102;19.958;2023-02-26T09:17:23;3.28;58.11
68511;SHT31;55512;50.102;19.958;2023-02-26T09:19:50;3.28;58.70
68511;SHT31;55512;50.102;19.958;2023-02-26T09:22:15;3.31;58.61
68511;SHT31;55512;50.102;19.958;2023-02-26T09:24:41;3.35;58.93
68511;SHT31;55512;50.102;19.958;2023-02-26T09:27:07;3.39;59.13
68511;SHT31;55512;50.102;19.958;2023-02-26T09:29:33;3.37;59.13
68511;SHT31;55512;50.102;19.958;2023-02-26T09:31:58;3.35;59.25
68511;SHT31;55512;50.102;19.958;2023-02-26T09:34:24;3.35;59.01
68511;SHT31;55512;50.102;19.958;2023-02-26T09:36:49;3.36;58.13
68511;SHT31;55512;50.102;19.958;2023-02-26T09:39:15;3.40;58.56
68511;SHT31;55512;50.102;19.958;2023-02-26T09:41:42;3.41;58.46
68511;SHT31;55512;50.102;19.958;2023-02-26T09:44:22;3.43;58.20
68511;SHT31;55512;50.102;19.958;2023-02-26T09:49:31;3.54;58.40
68511;SHT31;55512;50.102;19.958;2023-02-26T09:55:05;3.56;57.90
68511;SHT31;55512;50.102;19.958;2023-02-26T09:57:43;3.59;57.30
68511;SHT31;55512;50.102;19.958;2023-02-26T10:03:04;3.53;56.12
68511;SHT31;55512;50.102;19.958;2023-02-26T10:12:09;3.81;56.33
68511;SHT31;55512;50.102;19.958;2023-02-26T10:14:49;3.84;56.34
68511;SHT31;55512;50.102;19.958;2023-02-26T10:17:58;3.90;56.27
68511;SHT31;55512;50.102;19.958;2023-02-26T10:24:03;3.80;56.49
68511;SHT31;55512;50.102;19.958;2023-02-26T10:26:42;3.73;57.11
68511;SHT31;55512;50.102;19.958;2023-02-26T10:32:05;3.77;57.91
68511;SHT31;55512;50.102;19.958;2023-02-26T10:35:17;3.87;57.95
68511;SHT31;55512;50.102;19.958;2023-02-26T10:37:51;3.96;57.93
68511;SHT31;55512;50.102;19.958;2023-02-26T10:40:25;3.99;57.28
68511;SHT31;55512;50.102;19.958;2023-02-26T10:42:59;4.07;57.42
68511;SHT31;55512;50.102;19.958;2023-02-26T10:46:03;4.21;56.79
68511;SHT31;55512;50.102;19.958;2023-02-26T10:51:31;4.47;55.56
68511;SHT31;55512;50.102;19.958;2023-02-26T10:54:03;4.55;54.96
68511;SHT31;55512;50.102;19.958;2023-02-26T10:56:43;4.55;53.90
68511;SHT31;55512;50.102;19.958;2023-02-26T10:59:09;4.46;52.21
68511;SHT31;55512;50.102;19.958;2023-02-26T11:01:35;4.44;52.84
68511;SHT31;55512;50.102;19.958;2023-02-26T11:06:44;4.48;53.11
68511;SHT31;55512;50.102;19.958;2023-02-26T11:09:35;4.43;53.51
68511;SHT31;55512;50.102;19.958;2023-02-26T11:14:36;3.99;55.09
68511;SHT31;55512;50.102;19.958;2023-02-26T11:17:06;3.87;55.99
68511;SHT31;55512;50.102;19.958;2023-02-26T11:19:45;3.75;55.78
68511;SHT31;55512;50.102;19.958;2023-02-26T11:22:17;3.63;55.85
68511;SHT31;55512;50.102;19.958;2023-02-26T11:24:46;3.59;56.29
68511;SHT31;55512;50.102;19.958;2023-02-26T11:27:17;3.53;56.17
68511;SHT31;55512;50.102;19.958;2023-02-26T11:29:55;3.48;56.40
68511;SHT31;55512;50.102;19.958;2023-02-26T11:32:31;3.41;56.37
68511;SHT31;55512;50.102;19.958;2023-02-26T11:35:00;3.37;56.81
68511;SHT31;55512;50.102;19.958;2023-02-26T11:37:28;3.28;56.68
68511;SHT31;55512;50.102;19.958;2023-02-26T11:40:02;3.17;57.13
68511;SHT31;55512;50.102;19.958;2023-02-26T11:42:40;3.14;57.36
68511;SHT31;55512;50.102;19.958;2023-02-26T11:45:33;3.11;56.80
68511;SHT31;55512;50.102;19.958;2023-02-26T11:48:04;3.13;57.42
68511;SHT31;55512;50.102;19.958;2023-02-26T11:50:40;3.17;57.22
68511;SHT31;55512;50.102;19.958;2023-02-26T11:53:23;3.16;55.96
68511;SHT31;55512;50.102;19.958;2023-02-26T11:56:00;3.11;55.95
68511;SHT31;55512;50.102;19.958;2023-02-26T11:58:38;3.11;55.92
68511;SHT31;55512;50.102;19.958;2023-02-26T12:01:09;3.09;55.76
68511;SHT31;55512;50.102;19.958;2023-02-26T12:03:38;3.08;55.80
68511;SHT31;55512;50.102;19.958;2023-02-26T12:06:17;3.05;54.99
68511;SHT31;55512;50.102;19.958;2023-02-26T12:08:46;3.08;55.90
68511;SHT31;55512;50.102;19.958;2023-02-26T12:13:44;3.20;55.54
68511;SHT31;55512;50.102;19.958;2023-02-26T12:16:33;3.26;55.96
68511;SHT31;55512;50.102;19.958;2023-02-26T12:31:23;3.64;56.92
68511;SHT31;55512;50.102;19.958;2023-02-26T12:37:27;3.80;57.84
68511;SHT31;55512;50.102;19.958;2023-02-26T12:40:13;3.87;57.81
68511;SHT31;55512;50.102;19.958;2023-02-26T12:43:12;3.93;57.20
68511;SHT31;55512;50.102;19.958;2023-02-26T12:45:58;3.95;56.64
68511;SHT31;55512;50.102;19.958;2023-02-26T12:57:22;3.69;58.54
68511;SHT31;55512;50.102;19.958;2023-02-26T13:08:56;3.58;60.20
68511;SHT31;55512;50.102;19.958;2023-02-26T13:11:49;3.46;60.29
68511;SHT31;55512;50.102;19.958;2023-02-26T13:20:00;3.30;58.69
68511;SHT31;55512;50.102;19.958;2023-02-26T13:22:41;3.21;58.67
68511;SHT31;55512;50.102;19.958;2023-02-26T13:28:00;3.22;59.11
68511;SHT31;55512;50.102;19.958;2023-02-26T13:30:35;3.22;58.75
68511;SHT31;55512;50.102;19.958;2023-02-26T13:33:15;3.04;58.20
68511;SHT31;55512;50.102;19.958;2023-02-26T13:35:46;2.94;58.72
68511;SHT31;55512;50.102;19.958;2023-02-26T13:38:37;2.93;58.97
68511;SHT31;55512;50.102;19.958;2023-02-26T13:50:18;3.05;59.19
68511;SHT31;55512;50.102;19.958;2023-02-26T13:53:34;3.05;59.14
68511;SHT31;55512;50.102;19.958;2023-02-26T13:59:02;3.00;58.43
68511;SHT31;55512;50.102;19.958;2023-02-26T14:01:48;2.96;58.35
68511;SHT31;55512;50.102;19.958;2023-02-26T14:06:52;2.86;58.73
68511;SHT31;55512;50.102;19.958;2023-02-26T14:12:39;2.93;58.83
68511;SHT31;55512;50.102;19.958;2023-02-26T14:17:37;2.97;58.51
68511;SHT31;55512;50.102;19.958;2023-02-26T14:22:47;3.13;58.08
68511;SHT31;55512;50.102;19.958;2023-02-26T14:25:37;3.12;57.83
68511;SHT31;55512;50.102;19.958;2023-02-26T14:30:50;3.27;57.59
68511;SHT31;55512;50.102;19.958;2023-02-26T14:33:38;4.15;56.92
68511;SHT31;55512;50.102;19.958;2023-02-26T14:36:19;5.38;54.13
68511;SHT31;55512;50.102;19.958;2023-02-26T14:38:56;5.28;53.35
68511;SHT31;55512;50.102;19.958;2023-02-26T14:41:36;5.39;53.07
68511;SHT31;55512;50.102;19.958;2023-02-26T14:46:45;8.87;47.29
68511;SHT31;55512;50.102;19.958;2023-02-26T14:49:17;10.16;44.61
68511;SHT31;55512;50.102;19.958;2023-02-26T14:54:32;11.58;41.22
68511;SHT31;55512;50.102;19.958;2023-02-26T15:14:37;7.35;42.71
68511;SHT31;55512;50.102;19.958;2023-02-26T15:17:33;6.47;43.76
68511;SHT31;55512;50.102;19.958;2023-02-26T15:26:20;4.55;48.84
68511;SHT31;55512;50.102;19.958;2023-02-26T15:28:59;4.27;49.93
68511;SHT31;55512;50.102;19.958;2023-02-26T15:31:32;3.90;52.28
68511;SHT31;55512;50.102;19.958;2023-02-26T15:34:01;3.61;54.00
68511;SHT31;55512;50.102;19.958;2023-02-26T15:36:28;3.34;56.37
68511;SHT31;55512;50.102;19.958;2023-02-26T15:38:56;3.13;57.60
68511;SHT31;55512;50.102;19.958;2023-02-26T15:41:28;3.00;58.15
68511;SHT31;55512;50.102;19.958;2023-02-26T15:43:57;2.91;58.30
68511;SHT31;55512;50.102;19.958;2023-02-26T15:46:32;2.82;58.50
68511;SHT31;55512;50.102;19.958;2023-02-26T15:49:12;2.71;58.80
68511;SHT31;55512;50.102;19.958;2023-02-26T15:52:03;2.61;58.77
68511;SHT31;55512;50.102;19.958;2023-02-26T15:54:37;2.50;58.77
68511;SHT31;55512;50.102;19.958;2023-02-26T15:57:10;2.45;58.58
68511;SHT31;55512;50.102;19.958;2023-02-26T15:59:41;2.41;58.69
68511;SHT31;55512;50.102;19.958;2023-02-26T16:02:13;2.33;59.17
68511;SHT31;55512;50.102;19.958;2023-02-26T16:04:41;2.24;59.31
68511;SHT31;55512;50.102;19.958;2023-02-26T16:07:08;2.22;59.53
68511;SHT31;55512;50.102;19.958;2023-02-26T16:09:40;2.20;59.59
68511;SHT31;55512;50.102;19.958;2023-02-26T16:12:18;2.16;59.65
68511;SHT31;55512;50.102;19.958;2023-02-26T16:14:57;2.18;59.70
68511;SHT31;55512;50.102;19.958;2023-02-26T16:17:29;2.20;59.60
68511;SHT31;55512;50.102;19.958;2023-02-26T16:20:01;2.24;59.51
68511;SHT31;55512;50.102;19.958;2023-02-26T16:22:35;2.23;59.33
68511;SHT31;55512;50.102;19.958;2023-02-26T16:25:07;2.23;59.57
68511;SHT31;55512;50.102;19.958;2023-02-26T16:27:42;2.22;59.58
68511;SHT31;55512;50.102;19.958;2023-02-26T16:30:14;2.24;59.66
68511;SHT31;55512;50.102;19.958;2023-02-26T16:32:44;2.24;59.66
68511;SHT31;55512;50.102;19.958;2023-02-26T16:35:20;2.26;59.61
68511;SHT31;55512;50.102;19.958;2023-02-26T16:37:49;2.27;59.55
68511;SHT31;55512;50.102;19.958;2023-02-26T16:40:22;2.27;59.34
68511;SHT31;55512;50.102;19.958;2023-02-26T16:51:22;2.19;59.38
68511;SHT31;55512;50.102;19.958;2023-02-26T16:53:55;2.17;59.32
68511;SHT31;55512;50.102;19.958;2023-02-26T16:56:28;2.17;59.56
68511;SHT31;55512;50.102;19.958;2023-02-26T16:59:02;2.15;59.65
68511;SHT31;55512;50.102;19.958;2023-02-26T17:01:39;2.10;59.67
68511;SHT31;55512;50.102;19.958;2023-02-26T17:04:14;2.08;59.71
68511;SHT31;55512;50.102;19.958;2023-02-26T17:06:42;2.08;59.96
68511;SHT31;55512;50.102;19.958;2023-02-26T17:09:22;2.07;59.78
68511;SHT31;55512;50.102;19.958;2023-02-26T17:12:02;2.09;59.88
68511;SHT31;55512;50.102;19.958;2023-02-26T17:14:40;2.11;59.96
68511;SHT31;55512;50.102;19.958;2023-02-26T17:17:08;2.15;60.05
68511;SHT31;55512;50.102;19.958;2023-02-26T17:19:34;2.17;60.09
68511;SHT31;55512;50.102;19.958;2023-02-26T17:22:01;2.18;60.09
68511;SHT31;55512;50.102;19.958;2023-02-26T17:24:30;2.20;60.14
68511;SHT31;55512;50.102;19.958;2023-02-26T17:27:00;2.18;60.02
68511;SHT31;55512;50.102;19.958;2023-02-26T17:32:07;2.10;60.10
68511;SHT31;55512;50.102;19.958;2023-02-26T17:34:46;2.12;59.99
68511;SHT31;55512;50.102;19.958;2023-02-26T17:37:13;2.11;59.87
68511;SHT31;55512;50.102;19.958;2023-02-26T17:39:40;2.08;59.64
68511;SHT31;55512;50.102;19.958;2023-02-26T17:42:15;2.08;59.56
68511;SHT31;55512;50.102;19.958;2023-02-26T17:44:47;2.08;59.54
68511;SHT31;55512;50.102;19.958;2023-02-26T17:47:14;2.09;59.48
68511;SHT31;55512;50.102;19.958;2023-02-26T17:49:44;2.12;59.40
68511;SHT31;55512;50.102;19.958;2023-02-26T17:52:10;2.15;59.36
68511;SHT31;55512;50.102;19.958;2023-02-26T17:54:36;2.18;59.44
68511;SHT31;55512;50.102;19.958;2023-02-26T17:57:02;2.21;59.51
68511;SHT31;55512;50.102;19.958;2023-02-26T17:59:29;2.24;59.47
68511;SHT31;55512;50.102;19.958;2023-02-26T18:01:55;2.26;59.28
68511;SHT31;55512;50.102;19.958;2023-02-26T18:04:20;2.28;59.28
68511;SHT31;55512;50.102;19.958;2023-02-26T18:06:46;2.30;59.28
68511;SHT31;55512;50.102;19.958;2023-02-26T18:09:13;2.34;59.36
68511;SHT31;55512;50.102;19.958;2023-02-26T18:11:38;2.36;59.35
68511;SHT31;55512;50.102;19.958;2023-02-26T18:14:06;2.39;59.40
68511;SHT31;55512;50.102;19.958;2023-02-26T18:16:34;2.41;59.41
68511;SHT31;55512;50.102;19.958;2023-02-26T18:19:05;2.43;59.47
68511;SHT31;55512;50.102;19.958;2023-02-26T18:21:32;2.44;59.34
68511;SHT31;55512;50.102;19.958;2023-02-26T18:23:58;2.46;59.39
68511;SHT31;55512;50.102;19.958;2023-02-26T18:26:25;2.46;59.23
68511;SHT31;55512;50.102;19.958;2023-02-26T18:28:55;2.44;59.36
68511;SHT31;55512;50.102;19.958;2023-02-26T18:31:22;2.42;59.57
68511;SHT31;55512;50.102;19.958;2023-02-26T18:33:56;2.40;59.43
68511;SHT31;55512;50.102;19.958;2023-02-26T18:36:24;2.42;59.40
68511;SHT31;55512;50.102;19.958;2023-02-26T18:38:59;2.42;59.31
68511;SHT31;55512;50.102;19.958;2023-02-26T18:41:30;2.41;59.25
68511;SHT31;55512;50.102;19.958;2023-02-26T18:43:56;2.42;59.31
68511;SHT31;55512;50.102;19.958;2023-02-26T18:46:23;2.42;59.32
68511;SHT31;55512;50.102;19.958;2023-02-26T18:48:50;2.43;59.46
68511;SHT31;55512;50.102;19.958;2023-02-26T18:51:17;2.44;59.33
68511;SHT31;55512;50.102;19.958;2023-02-26T18:53:42;2.44;59.26
68511;SHT31;55512;50.102;19.958;2023-02-26T18:56:08;2.44;59.30
68511;SHT31;55512;50.102;19.958;2023-02-26T18:58:34;2.44;59.41
68511;SHT31;55512;50.102;19.958;2023-02-26T19:01:01;2.45;59.35
68511;SHT31;55512;50.102;19.958;2023-02-26T19:03:29;2.47;59.35
68511;SHT31;55512;50.102;19.958;2023-02-26T19:05:56;2.48;59.18
68511;SHT31;55512;50.102;19.958;2023-02-26T19:08:23;2.49;59.17
68511;SHT31;55512;50.102;19.958;2023-02-26T19:10:49;2.49;59.31
68511;SHT31;55512;50.102;19.958;2023-02-26T19:13:14;2.50;59.10
68511;SHT31;55512;50.102;19.958;2023-02-26T19:15:40;2.52;59.10
68511;SHT31;55512;50.102;19.958;2023-02-26T19:18:05;2.51;59.03
68511;SHT31;55512;50.102;19.958;2023-02-26T19:20:31;2.53;59.10